Aviosuperficie CHAVEZ-MARINI

IT-0049 · 皮埃蒙特, 意大利

使用的METAR站距离机场44 km。
罗盘
风向 的 风向 090° Aviosuperficie CHAVEZ-MARINI 18/36
风: 1 kt, 1 beaufort


1 kt
改变
0 ft 2.000 4.000 6.000 8.000 10.000
Cloud Cloud Cloud Cloud Cloud Cloud Cloud Cloud
OVC 5.200
METAR LSZL 012120Z AUTO 09001KT 6000NDV -RA OVC052 07/06 Q1008 RMK

METAR Aviosuperficie CHAVEZ-MARINI - IT-0049

Aviosuperficie CHAVEZ-MARINI是,意大利中的小机场。 该机场位于纬度46,13394和经度8,30618。 该机场有2条跑道: 18/36 和 1/19. 这个机场没有ICAO代码,我们使用IT-0049作为参考。 机场在Switzerland FIR中。

该航空气象观测是针对Locarno Airport在2024年3月1日 22:20, 当地时间进行的。

机场观察

风向为090°,速度为1 kt。

可见度为6 km。

有乌云密布在5.200 ft的高度。 破损或更高的上限为5.200 ft。

当前天气为光 雨。 温度和风寒是7 °C。 露点为6 °C,相对湿度为93%。 海平面上的气压为1008 hPa (QNH)。

白天

今天,太阳从07:04升起,在18:13降落。 这适用于Aviosuperficie CHAVEZ-MARINI,世界夏令时可能有所不同。 当地时间与世界标准时间之间的时差为+1 小时。 当前,没有夏令时有效。

公司介绍

我们没有关于这个机场的公司信息。

体会

到Vliegles.nl去找飞行课程,跳伞和其他飞行体验。 浏览页面,了解Aviosuperficie CHAVEZ-MARINI附近所有可用的活动。 你也可以使用搜索功能来寻找你所在地附近的特定飞行课程、跳伞或其他飞行体验。

跑道

Id 标题 侧风 逆风 侧风 %
18/36 178°-358° 100 %
1/19 009°-189° 99 %

逆风成分最大的方向会被突出显示,并用于横风计算。 这并不一定意味着这个方向在使用。

乌云

5.200 ft OVC 乌云密布

温度 & 天气

天气 光 雨
温度 7 °C
露点 6 °C
相对湿度 93%
Kp-index 0 (0-9)

白天

日出
07:02 (8:14)
中午
12:36
日落
18:11

小工具

你想在你的网站上有一个关于Aviosuperficie CHAVEZ-MARINI的当前航空天气(METAR)的小部件吗?

显示HTML代码
?>